This is the latest recevied weather packets stored in our database for station/object F1ZFG-13. If no packets are shown the sender has not sent any weather packets the latest 10 day(s).
| Time | Temp. | Humidity | Pressure | Rain* | Wind** | Luminosity | Snow |
|---|---|---|---|---|---|---|---|
| 1787532054 | 19.44° C | 45% | 1017.4 hPa | 0 mm | - | - | - |
| 1787528582 | 20.56° C | 40% | 1017.6 hPa | 0 mm | - | - | - |
| 1787525588 | 21.67° C | 35% | 1017.4 hPa | 0 mm | - | - | - |
| 1787522021 | 22.22° C | 32% | 1017.4 hPa | 0 mm | - | - | - |
| 1787518722 | 23.33° C | 32% | 1017.7 hPa | 0 mm | - | - | - |
| 1787515853 | 23.33° C | 32% | 1017.7 hPa | 0 mm | - | - | - |
| 1787512562 | 24.44° C | 29% | 1017.2 hPa | 0 mm | - | - | - |
| 1787509655 | 25.56° C | 28% | 1017.1 hPa | 0 mm | - | - | - |
| 1787506674 | 26.67° C | 26% | 1017.1 hPa | 0 mm | - | - | - |
| 1787503600 | 27.22° C | 25% | 1017.3 hPa | 0 mm | - | - | - |
| 1787500371 | 27.22° C | 24% | 1017.5 hPa | 0 mm | - | - | - |
| 1787497230 | 27.22° C | 24% | 1017.5 hPa | 0 mm | - | - | - |
| 1787493988 | 27.22° C | 24% | 1018.2 hPa | 0 mm | - | - | - |
| 1787490854 | 26.67° C | 26% | 1018.5 hPa | 0 mm | - | - | - |
| 1787487782 | 25.56° C | 28% | 1018.9 hPa | 0 mm | - | - | - |
| 1787484544 | 24.44° C | 32% | 1019.5 hPa | 0 mm | - | - | - |
| 1787481026 | 22.22° C | 38% | 1020.2 hPa | 0 mm | - | - | - |
| 1787477738 | 20° C | 44% | 1020.6 hPa | 0 mm | - | - | - |
| 1787474489 | 17.78° C | 50% | 1020.5 hPa | 0 mm | - | - | - |
| 1787471024 | 16.11° C | 56% | 1020.7 hPa | 0 mm | - | - | - |
| 1787467483 | 15° C | 59% | 1020.6 hPa | 0 mm | - | - | - |
| 1787464134 | 14.44° C | 62% | 1020 hPa | 0 mm | - | - | - |
| 1787460855 | 15° C | 58% | 1019.7 hPa | 0 mm | - | - | - |
| 1787457707 | 15° C | 58% | 1019.7 hPa | 0 mm | - | - | - |
| 1787454674 | 15.56° C | 55% | 1019.4 hPa | 0 mm | - | - | - |
* Rain latest hour (hover to see other rain measurements)
** Current wind speed in m/s (hover to see current wind gust speed)